Time;durP1;ratioP1;P1;durP2;ratioP2;P2;SDS_P1;SDS_P2;PMS_P1;PMS_P2;Temp;Humidity;BMP_temperature;BMP_pressure;BME280_temperature;BME280_humidity;BME280_pressure;Samples;Min_cycle;Max_cycle;Signal;HPM_P1;HPM_P2
2023/12/03 00:01:43;;;;;;;26.13;23.95;;;;;;;-141.02;72.31;40066.88;5112939;28;20228;-76
2023/12/03 00:04:12;;;;;;;27.10;24.90;;;;;;;-141.02;72.48;40064.97;5112639;28;20279;-74
2023/12/03 00:06:39;;;;;;;25.48;23.38;;;;;;;-141.02;72.27;40064.97;5112691;28;20654;-75
2023/12/03 00:09:06;;;;;;;26.95;24.70;;;;;;;-141.02;71.94;40064.97;5112522;28;20197;-78
2023/12/03 00:11:33;;;;;;;26.52;24.30;;;;;;;-141.02;72.28;40049.63;5113191;28;20220;-79
2023/12/03 00:14:00;;;;;;;25.85;23.65;;;;;;;-141.02;72.05;40049.63;5112286;28;20667;-76
2023/12/03 00:16:27;;;;;;;25.55;23.35;;;;;;;-141.02;72.68;40053.44;5112776;28;20319;-76
2023/12/03 00:18:54;;;;;;;25.23;23.13;;;;;;;-141.02;71.68;40063.03;5112867;28;20193;-80
2023/12/03 00:21:23;;;;;;;26.20;24.00;;;;;;;-141.02;72.13;40049.63;5112437;28;20224;-75
2023/12/03 00:23:50;;;;;;;25.80;23.60;;;;;;;-141.02;71.37;40040.03;5112428;28;20610;-78
2023/12/03 00:26:17;;;;;;;26.08;23.88;;;;;;;-141.02;71.03;40047.69;5112711;28;20228;-75
2023/12/03 00:28:43;;;;;;;26.38;24.17;;;;;;;-141.02;71.87;40040.03;5112248;28;20742;-76
2023/12/03 00:31:10;;;;;;;26.75;24.50;;;;;;;-141.02;71.58;40059.22;5112673;28;20367;-76
2023/12/03 00:33:43;;;;;;;28.92;26.52;;;;;;;-141.02;71.29;40049.63;5112584;28;20288;-76
2023/12/03 00:36:11;;;;;;;28.20;25.90;;;;;;;-141.02;71.08;40030.44;5112609;28;20722;-75
2023/12/03 00:38:39;;;;;;;27.52;25.23;;;;;;;-141.02;70.66;40034.28;5112568;28;20193;-75
2023/12/03 00:41:07;;;;;;;27.85;25.52;;;;;;;-141.02;71.00;40041.94;5112623;28;20198;-78
2023/12/03 00:43:34;;;;;;;28.65;26.25;;;;;;;-141.02;70.54;40047.69;5112180;28;20271;-81
2023/12/03 00:46:02;;;;;;;26.63;24.33;;;;;;;-141.02;71.26;40017.00;5112541;28;20650;-79
2023/12/03 00:48:29;;;;;;;29.20;26.77;;;;;;;-141.02;70.72;40015.09;5112147;28;20189;-76
2023/12/03 00:50:56;;;;;;;27.38;25.08;;;;;;;-141.02;70.55;40015.09;5112164;28;20199;-79
2023/12/03 00:53:24;;;;;;;31.50;28.90;;;;;;;-141.02;70.10;40026.59;5112130;28;20280;-79
2023/12/03 00:55:54;;;;;;;28.77;26.38;;;;;;;-141.02;69.91;39999.75;5112062;28;20284;-76
2023/12/03 00:58:21;;;;;;;31.52;28.95;;;;;;;-141.02;69.96;39359.16;5112432;28;20574;-76
2023/12/03 01:00:48;;;;;;;29.63;27.13;;;;;;;-141.02;70.16;39995.91;5112085;28;20197;-76
2023/12/03 01:03:15;;;;;;;34.50;31.80;;;;;;;-141.02;70.00;39984.41;5111959;28;20689;-75
2023/12/03 01:05:42;;;;;;;30.20;27.70;;;;;;;-141.02;70.18;40022.75;5112319;28;20197;-80
2023/12/03 01:08:09;;;;;;;27.90;25.60;;;;;;;-141.02;70.41;40011.25;5112300;28;20193;-76
2023/12/03 01:10:36;;;;;;;28.00;25.65;;;;;;;-141.02;70.45;40003.59;5112288;28;20197;-75
2023/12/03 01:13:04;;;;;;;27.88;25.48;;;;;;;-141.02;70.66;39994.00;5112244;28;20231;-76
2023/12/03 01:15:31;;;;;;;29.90;27.45;;;;;;;-141.02;70.67;40030.44;5111884;28;20233;-76
2023/12/03 01:17:58;;;;;;;26.85;24.60;;;;;;;-141.02;71.68;39995.91;5111875;28;20682;-75
2023/12/03 01:20:25;;;;;;;29.00;26.60;;;;;;;-141.02;70.88;40040.03;5111931;28;20675;-79
2023/12/03 01:22:53;;;;;;;27.75;25.45;;;;;;;-141.02;71.69;40001.66;5111884;28;20264;-78
2023/12/03 01:25:20;;;;;;;28.65;26.35;;;;;;;-141.02;71.95;39999.75;5111904;28;20688;-76
2023/12/03 01:27:46;;;;;;;26.00;23.90;;;;;;;-141.02;72.68;40015.09;5115086;28;20275;-80
2023/12/03 01:30:15;;;;;;;26.48;24.17;;;;;;;-141.02;72.04;40022.75;5115423;28;20314;-76
2023/12/03 01:32:42;;;;;;;26.85;24.55;;;;;;;-141.02;72.88;40038.09;5115463;28;20292;-76
2023/12/03 01:35:09;;;;;;;25.70;23.50;;;;;;;-141.02;73.53;40030.44;5116047;28;20193;-76
2023/12/03 01:37:36;;;;;;;25.27;23.08;;;;;;;-141.02;73.09;40026.59;5115330;28;20284;-76
2023/12/03 01:40:04;;;;;;;25.70;23.50;;;;;;;-141.02;73.74;40015.09;5115698;28;20266;-79
2023/12/03 01:42:34;;;;;;;26.80;24.50;;;;;;;-141.02;73.92;40118.66;5115535;28;20248;-76
2023/12/03 01:45:01;;;;;;;26.50;24.20;;;;;;;-141.02;74.68;40038.09;5115603;28;20280;-76
2023/12/03 01:47:30;;;;;;;32.97;30.38;;;;;;;-141.02;75.16;40026.59;5115500;28;20229;-76
2023/12/03 01:50:04;;;;;;;25.13;22.92;;;;;;;-141.02;75.47;40026.59;5115502;28;20235;-75
2023/12/03 01:52:31;;;;;;;26.08;23.77;;;;;;;-141.02;75.79;40040.03;5115160;28;20232;-75
2023/12/03 01:55:00;;;;;;;29.17;26.67;;;;;;;-141.02;74.65;40030.44;5115315;28;20284;-76
2023/12/03 01:57:28;;;;;;;26.40;24.20;;;;;;;-141.02;75.15;40020.84;5114995;28;20659;-75
2023/12/03 01:59:55;;;;;;;27.30;25.00;;;;;;;-141.02;74.60;40022.75;5115278;28;20225;-76
2023/12/03 02:02:22;;;;;;;25.92;23.73;;;;;;;-141.02;73.77;40026.59;5115154;28;20634;-76
2023/12/03 02:04:50;;;;;;;28.30;25.90;;;;;;;-141.02;73.26;40009.34;5115610;28;20201;-76
2023/12/03 02:07:17;;;;;;;33.80;31.20;;;;;;;-141.02;73.78;40007.41;5114812;28;20663;-76
2023/12/03 02:09:45;;;;;;;26.63;24.33;;;;;;;-141.02;73.54;39976.72;5114792;28;20197;-80
2023/12/03 02:12:12;;;;;;;25.50;23.30;;;;;;;-141.02;73.81;40011.25;5114941;28;20193;-76
2023/12/03 02:14:40;;;;;;;26.30;24.10;;;;;;;-141.02;74.04;39988.22;5114694;28;20197;-75
2023/12/03 02:17:07;;;;;;;26.13;23.83;;;;;;;-141.02;75.20;40026.59;5114578;28;20583;-80
2023/12/03 02:19:34;;;;;;;26.40;24.20;;;;;;;-141.02;76.25;40003.59;5114582;28;20697;-81
2023/12/03 02:22:02;;;;;;;24.73;22.63;;;;;;;-141.02;75.03;39992.06;5114558;28;20639;-76
2023/12/03 02:24:31;;;;;;;25.05;22.95;;;;;;;-141.02;75.48;39990.16;5114789;28;20706;-76
2023/12/03 02:26:58;;;;;;;23.92;21.85;;;;;;;-141.02;75.43;39992.06;5114448;28;20236;-76
2023/12/03 02:29:25;;;;;;;25.20;23.10;;;;;;;-141.02;75.64;40003.59;5114373;28;20267;-78
2023/12/03 02:31:52;;;;;;;25.60;23.40;;;;;;;-141.02;75.50;39995.91;5114401;28;20659;-76
2023/12/03 02:34:18;;;;;;;24.70;22.60;;;;;;;-141.02;74.41;39995.91;5114587;28;20215;-76
2023/12/03 02:36:45;;;;;;;24.60;22.50;;;;;;;-141.02;75.15;39992.06;5114179;28;20200;-76
2023/12/03 02:39:12;;;;;;;27.38;25.08;;;;;;;-141.02;73.99;40020.84;5114130;28;20649;-77
2023/12/03 02:41:41;;;;;;;25.95;23.75;;;;;;;-141.02;75.31;40003.59;5114417;28;20193;-76
2023/12/03 02:44:08;;;;;;;25.85;23.65;;;;;;;-141.02;76.46;40007.41;5114094;28;20268;-76
2023/12/03 02:46:35;;;;;;;24.23;22.13;;;;;;;-141.02;76.72;39999.75;5114103;28;20279;-76
2023/12/03 02:49:02;;;;;;;25.17;23.08;;;;;;;-141.02;77.29;40001.66;5113995;28;20239;-76
2023/12/03 02:51:29;;;;;;;25.83;23.63;;;;;;;-141.02;77.83;40007.41;5114278;28;20197;-76
2023/12/03 02:53:55;;;;;;;24.65;22.55;;;;;;;-141.02;78.62;39988.22;5114222;28;20276;-76
2023/12/03 02:56:22;;;;;;;26.25;24.05;;;;;;;-141.02;77.76;40030.44;5113814;28;20279;-80
2023/12/03 02:58:51;;;;;;;25.88;23.67;;;;;;;-141.02;78.33;39999.75;5113773;28;20757;-80
2023/12/03 03:01:17;;;;;;;24.75;22.65;;;;;;;-141.02;78.49;39988.22;5114092;28;20201;-78
2023/12/03 03:03:44;;;;;;;25.52;23.40;;;;;;;-141.02;78.48;39982.47;5113676;28;20709;-76
2023/12/03 03:06:11;;;;;;;25.23;23.13;;;;;;;-141.02;78.08;39965.22;5113684;28;20713;-76
2023/12/03 03:08:38;;;;;;;25.02;22.88;;;;;;;-141.02;77.93;39995.91;5113971;28;20615;-75
2023/12/03 03:11:06;;;;;;;23.73;21.73;;;;;;;-141.02;77.99;39965.22;5113898;28;20236;-80
2023/12/03 03:13:33;;;;;;;25.90;23.70;;;;;;;-141.02;77.44;39992.06;5113569;28;20193;-75
2023/12/03 03:16:01;;;;;;;26.10;23.90;;;;;;;-141.02;77.53;39965.22;5113446;28;20232;-76
2023/12/03 03:18:29;;;;;;;24.58;22.48;;;;;;;-141.02;78.17;39965.22;5113397;28;20284;-76
2023/12/03 03:20:56;;;;;;;23.55;21.55;;;;;;;-141.02;78.30;39961.38;5113430;28;20292;-80
2023/12/03 03:23:23;;;;;;;26.20;24.00;;;;;;;-141.02;77.93;39999.75;5113555;28;20328;-80
2023/12/03 03:25:50;;;;;;;24.35;22.25;;;;;;;-141.02;77.05;39980.56;5113685;28;20280;-77
2023/12/03 03:28:17;;;;;;;27.33;25.02;;;;;;;-141.02;77.00;39982.47;5113251;28;20189;-76
2023/12/03 03:30:44;;;;;;;25.10;23.00;;;;;;;-141.02;76.22;40015.09;5113050;28;20584;-76
2023/12/03 03:33:12;;;;;;;26.02;23.83;;;;;;;-141.02;76.87;39961.38;5113502;28;20197;-77
2023/12/03 03:35:40;;;;;;;27.05;24.77;;;;;;;-141.02;76.74;39995.91;5113398;28;20575;-76
2023/12/03 03:38:07;;;;;;;26.25;24.05;;;;;;;-141.02;76.83;39969.06;5113359;28;20247;-75
2023/12/03 03:40:34;;;;;;;26.50;24.30;;;;;;;-141.02;76.68;39972.88;5112985;28;20284;-76
2023/12/03 03:43:01;;;;;;;26.80;24.50;;;;;;;-141.02;77.09;39992.06;5113248;28;20631;-76
2023/12/03 03:45:28;;;;;;;25.88;23.67;;;;;;;-141.02;76.18;40020.84;5112981;28;20207;-80
2023/12/03 03:47:54;;;;;;;25.52;23.33;;;;;;;-141.02;76.19;39999.75;5113288;28;20246;-76
2023/12/03 03:50:23;;;;;;;26.63;24.42;;;;;;;-141.02;76.05;39988.22;5112818;28;20276;-76
2023/12/03 03:52:50;;;;;;;25.65;23.45;;;;;;;-141.02;75.79;39994.00;5113102;28;20232;-80
2023/12/03 03:55:17;;;;;;;25.98;23.77;;;;;;;-141.02;76.23;40020.84;5112856;28;20207;-81
2023/12/03 03:57:44;;;;;;;25.05;22.85;;;;;;;-141.02;76.22;40026.59;5112988;28;20261;-76
2023/12/03 04:00:12;;;;;;;30.67;28.27;;;;;;;-141.02;76.14;40049.63;5112974;28;20189;-76
2023/12/03 04:02:39;;;;;;;27.85;25.45;;;;;;;-141.02;75.83;40061.13;5112971;28;20224;-77
2023/12/03 04:05:06;;;;;;;24.00;22.00;;;;;;;-141.02;76.33;40022.75;5112588;28;20311;-81
2023/12/03 04:07:35;;;;;;;24.20;22.10;;;;;;;-141.02;75.89;40007.41;5112988;28;20224;-75
2023/12/03 04:10:02;;;;;;;24.50;22.40;;;;;;;-141.02;75.37;39995.91;5112579;28;20674;-76
2023/12/03 04:12:29;;;;;;;24.67;22.58;;;;;;;-141.02;75.35;40018.94;5112830;28;20254;-76
2023/12/03 04:14:56;;;;;;;25.00;22.90;;;;;;;-141.02;76.83;39999.75;5112859;28;20220;-76
2023/12/03 04:17:23;;;;;;;24.63;22.52;;;;;;;-141.02;77.44;40007.41;5112454;28;20649;-75
2023/12/03 04:19:50;;;;;;;24.25;22.15;;;;;;;-141.02;78.40;40007.41;5112478;28;20199;-76
2023/12/03 04:22:17;;;;;;;26.02;23.83;;;;;;;-141.02;79.51;40007.41;5112405;28;20717;-76
2023/12/03 04:24:47;;;;;;;24.75;22.65;;;;;;;-141.02;80.79;39965.22;5112715;28;20628;-75
2023/12/03 04:27:14;;;;;;;22.77;20.88;;;;;;;-141.02;82.69;39957.53;5112461;28;20725;-75
2023/12/03 04:29:41;;;;;;;22.70;20.80;;;;;;;-141.02;85.44;39926.84;5112164;28;20703;-75
2023/12/03 04:32:09;;;;;;;21.45;19.70;;;;;;;-141.02;90.25;39830.94;5112687;28;20279;-75
2023/12/03 04:34:36;;;;;;;22.42;20.73;;;;;;;-141.02;92.66;39779.16;5112650;28;20203;-75
2023/12/03 04:37:03;;;;;;;20.42;18.83;;;;;;;-141.02;94.78;39673.69;5112324;28;20655;-75
2023/12/03 04:39:31;;;;;;;20.48;18.88;;;;;;;-141.02;95.20;39694.78;5112256;28;20223;-74
2023/12/03 04:41:59;;;;;;;20.45;18.85;;;;;;;-141.02;94.56;39669.84;5112230;28;20682;-78
2023/12/03 04:44:26;;;;;;;22.65;20.95;;;;;;;-141.02;94.69;39689.03;5112472;28;20286;-76
2023/12/03 04:46:53;;;;;;;20.65;19.00;;;;;;;-141.02;95.09;39675.59;5112538;28;20190;-76
2023/12/03 04:49:19;;;;;;;20.30;18.70;;;;;;;-141.02;95.17;39675.59;5112117;28;20684;-76
2023/12/03 04:51:46;;;;;;;20.45;18.85;;;;;;;-141.02;95.00;39696.69;5112127;28;20197;-79
2023/12/03 04:54:13;;;;;;;19.83;18.23;;;;;;;-141.02;95.13;39664.09;5112476;28;20197;-75
2023/12/03 04:56:40;;;;;;;19.58;18.08;;;;;;;-141.02;95.36;39662.16;5112062;28;20560;-75
2023/12/03 04:59:09;;;;;;;20.15;18.60;;;;;;;-141.02;96.63;39619.97;5112128;28;20288;-75
2023/12/03 05:01:36;;;;;;;20.63;19.02;;;;;;;-141.02;100.00;39616.13;5113516;28;20204;-76
2023/12/03 05:04:03;;;;;;;19.83;18.65;;;;;;;-141.02;100.00;39504.91;5115990;28;20740;-76
2023/12/03 05:06:30;;;;;;;20.40;19.40;;;;;;;-141.02;100.00;39324.63;5116352;28;20193;-76
2023/12/03 05:08:56;;;;;;;22.00;21.00;;;;;;;-141.02;100.00;39182.72;5116317;28;20303;-75
2023/12/03 05:11:23;;;;;;;33.90;32.10;;;;;;;-141.02;100.00;39069.59;5116233;28;20235;-75
2023/12/03 05:13:50;;;;;;;24.48;23.27;;;;;;;-141.02;100.00;38979.47;5116234;28;20228;-77
2023/12/03 05:16:19;;;;;;;32.88;31.15;;;;;;;-141.02;100.00;38921.94;5116340;28;20288;-83
2023/12/03 05:18:46;;;;;;;33.10;31.30;;;;;;;-141.02;100.00;38810.72;5115833;28;20659;-81
2023/12/03 05:21:13;;;;;;;31.40;29.70;;;;;;;-141.02;100.00;38764.69;5115659;28;20671;-78
2023/12/03 05:23:40;;;;;;;29.80;28.20;;;;;;;-141.02;100.00;38795.38;5115607;28;20312;-76
2023/12/03 05:26:07;;;;;;;27.92;26.42;;;;;;;-141.02;100.00;38688.00;5115673;28;20683;-79
2023/12/03 05:28:34;;;;;;;27.58;26.08;;;;;;;-141.02;100.00;38649.66;5115455;28;20770;-72
2023/12/03 05:31:01;;;;;;;25.80;24.30;;;;;;;-141.02;100.00;38634.31;5115939;28;20204;-79
2023/12/03 05:33:29;;;;;;;26.05;24.55;;;;;;;-141.02;100.00;38674.56;5115776;28;20283;-74
2023/12/03 05:35:56;;;;;;;27.65;26.05;;;;;;;-141.02;100.00;38691.84;5115797;28;20201;-78
2023/12/03 05:38:23;;;;;;;29.40;27.70;;;;;;;-141.02;100.00;38734.03;5115367;28;20279;-82
2023/12/03 05:40:50;;;;;;;27.90;26.20;;;;;;;-141.02;100.00;38772.38;5115647;28;20197;-80
2023/12/03 05:43:17;;;;;;;29.67;27.88;;;;;;;-141.02;100.00;38864.41;5115292;28;20284;-80
2023/12/03 05:45:44;;;;;;;28.67;26.98;;;;;;;-141.02;100.00;38875.91;5115135;28;20354;-81
2023/12/03 05:48:11;;;;;;;30.75;29.05;;;;;;;-141.02;100.00;38925.75;5115558;28;20224;-80
2023/12/03 05:50:40;;;;;;;30.75;29.05;;;;;;;-141.02;100.00;38983.28;5115497;28;20193;-82
2023/12/03 05:53:07;;;;;;;28.10;26.60;;;;;;;-141.02;100.00;39025.47;5115686;28;20272;-71
2023/12/03 05:55:34;;;;;;;28.10;26.60;;;;;;;-141.02;100.00;39113.69;5115057;28;20662;-76
2023/12/03 05:58:01;;;;;;;26.40;25.00;;;;;;;-141.02;100.00;39290.13;5115295;28;20632;-79
2023/12/03 06:00:29;;;;;;;25.20;23.90;;;;;;;-141.02;100.00;39424.34;5115259;28;20193;-83
2023/12/03 06:02:59;;;;;;;23.70;22.50;;;;;;;-141.02;100.00;39539.44;5114847;28;20250;-82
2023/12/03 06:05:25;;;;;;;24.55;23.35;;;;;;;-141.02;100.00;39673.69;5115157;28;20647;-72
2023/12/03 06:07:54;;;;;;;23.40;22.20;;;;;;;-141.02;100.00;39800.25;5114832;28;20288;-81
2023/12/03 06:10:21;;;;;;;23.33;22.13;;;;;;;-141.02;100.00;39712.03;5114751;28;20280;-80
2023/12/03 06:12:48;;;;;;;23.20;22.00;;;;;;;-141.02;100.00;39679.44;5114711;28;20272;-78
2023/12/03 06:15:15;;;;;;;22.13;21.02;;;;;;;-141.02;100.00;39689.03;5114971;28;20275;-80
2023/12/03 06:17:42;;;;;;;21.50;20.50;;;;;;;-141.02;100.00;39748.47;5115027;28;20280;-72
2023/12/03 06:20:10;;;;;;;19.33;18.42;;;;;;;-141.02;100.00;39715.88;5115389;28;20661;-79
2023/12/03 06:22:37;;;;;;;17.90;16.95;;;;;;;-141.02;100.00;39742.72;5114813;28;20224;-80
2023/12/03 06:25:06;;;;;;;18.60;17.50;;;;;;;-141.02;100.00;39721.63;5114333;28;20271;-80
2023/12/03 06:27:34;;;;;;;18.58;17.38;;;;;;;-141.02;100.00;39689.03;5114511;28;20197;-80
2023/12/03 06:30:01;;;;;;;18.77;17.60;;;;;;;-141.02;100.00;39704.38;5114325;28;20233;-77
2023/12/03 06:32:28;;;;;;;19.08;17.77;;;;;;;-141.02;100.00;39646.81;5114325;28;20288;-84
2023/12/03 06:34:55;;;;;;;19.00;17.80;;;;;;;-141.02;100.00;39644.91;5114651;28;20199;-86
2023/12/03 06:37:22;;;;;;;19.08;17.88;;;;;;;-141.02;100.00;39577.78;5114195;28;20276;-78
2023/12/03 06:39:49;;;;;;;18.88;17.75;;;;;;;-141.02;100.00;39466.53;5114197;28;20322;-85
2023/12/03 06:42:17;;;;;;;18.38;17.17;;;;;;;-141.02;100.00;39481.88;5114478;28;20203;-81
2023/12/03 06:44:44;;;;;;;17.85;16.75;;;;;;;-141.02;100.00;39562.44;5113990;28;20233;-86
2023/12/03 06:47:11;;;;;;;17.73;16.63;;;;;;;-141.02;100.00;39501.06;5114085;28;20197;-78
2023/12/03 06:49:38;;;;;;;17.80;16.80;;;;;;;-141.02;100.00;39504.91;5113984;28;20280;-85
2023/12/03 06:52:05;;;;;;;17.50;16.50;;;;;;;-141.02;100.00;39627.66;5114017;28;20193;-78
2023/12/03 06:54:32;;;;;;;17.50;16.50;;;;;;;-141.02;100.00;39689.03;5113899;28;20651;-83
2023/12/03 06:56:59;;;;;;;16.67;15.77;;;;;;;-141.02;100.00;39662.16;5114146;28;20280;-85
2023/12/03 06:59:27;;;;;;;16.45;15.65;;;;;;;-141.02;100.00;39593.13;5114292;28;20276;-79
2023/12/03 07:01:54;;;;;;;15.85;15.05;;;;;;;-141.02;100.00;39554.78;5114048;28;20193;-84
2023/12/03 07:04:22;;;;;;;15.65;14.95;;;;;;;-141.02;100.00;39575.88;5113741;28;20225;-84
2023/12/03 07:06:49;;;;;;;15.50;14.80;;;;;;;-141.02;100.00;39556.69;5113622;28;20666;-86
2023/12/03 07:09:16;;;;;;;14.27;13.68;;;;;;;-141.02;100.00;39593.13;5114032;28;20197;-80
2023/12/03 07:11:43;;;;;;;14.43;13.82;;;;;;;-141.02;100.00;39562.44;5114031;28;20193;-85
2023/12/03 07:14:10;;;;;;;13.43;12.93;;;;;;;-141.02;100.00;39543.25;5113535;28;20232;-89
2023/12/03 07:16:38;;;;;;;13.25;12.75;;;;;;;-141.02;100.00;39631.47;5113743;28;20189;-80
2023/12/03 07:19:05;;;;;;;14.15;13.65;;;;;;;-141.02;100.00;39619.97;5113919;28;20228;-88
2023/12/03 07:21:32;;;;;;;13.90;13.40;;;;;;;-141.02;100.00;39608.47;5113739;28;20280;-86
2023/12/03 07:23:59;;;;;;;13.27;12.88;;;;;;;-141.02;100.00;39600.78;5112964;28;20621;-84
2023/12/03 07:26:26;;;;;;;13.77;13.38;;;;;;;-141.02;100.00;39612.31;5113319;28;20201;-79
2023/12/03 07:28:53;;;;;;;14.88;14.38;;;;;;;-141.02;100.00;39547.09;5113107;28;20221;-79
2023/12/03 07:31:20;;;;;;;16.65;16.05;;;;;;;-141.02;100.00;39504.91;5113552;28;20189;-85
2023/12/03 07:33:48;;;;;;;16.25;15.65;;;;;;;-141.02;100.00;39435.88;5113509;28;20225;-86
2023/12/03 07:36:15;;;;;;;15.60;15.00;;;;;;;-141.02;100.00;39386.00;5113183;28;20583;-78
2023/12/03 07:38:42;;;;;;;15.67;15.07;;;;;;;-141.02;100.00;39374.50;5113090;28;20656;-83
2023/12/03 07:41:12;;;;;;;15.60;15.00;;;;;;;-141.02;100.00;39336.13;5113563;28;20578;-84
2023/12/03 07:43:39;;;;;;;17.85;17.05;;;;;;;-141.02;100.00;39324.63;5113208;28;20281;-81
2023/12/03 07:46:07;;;;;;;20.27;19.37;;;;;;;-141.02;100.00;39403.25;5113211;28;20224;-77
2023/12/03 07:48:35;;;;;;;20.70;19.80;;;;;;;-141.02;100.00;39428.19;5113077;28;20246;-76
2023/12/03 07:51:10;;;;;;;23.07;21.97;;;;;;;-141.02;100.00;39416.69;5112944;28;20666;-75
2023/12/03 07:53:37;;;;;;;20.17;19.27;;;;;;;-141.02;100.00;39432.03;5113168;28;20264;-76
2023/12/03 07:56:04;;;;;;;17.07;16.27;;;;;;;-141.02;100.00;39646.81;5112806;28;20285;-74
2023/12/03 07:58:31;;;;;;;17.60;16.80;;;;;;;-141.02;100.00;39781.09;5112734;28;20197;-73
2023/12/03 08:01:00;;;;;;;18.40;17.70;;;;;;;-141.02;100.00;39786.84;5112737;28;20279;-73
2023/12/03 08:03:27;;;;;;;16.30;15.70;;;;;;;-141.02;100.00;39848.22;5112958;28;20193;-75
2023/12/03 08:05:54;;;;;;;16.53;15.93;;;;;;;-141.02;100.00;40076.47;5112542;28;20787;-73
2023/12/03 08:08:22;;;;;;;15.80;15.20;;;;;;;-141.02;100.00;40258.69;5112593;28;20201;-75
2023/12/03 08:10:49;;;;;;;15.97;15.37;;;;;;;-141.02;100.00;40498.50;5112528;28;20774;-75
2023/12/03 08:13:16;;;;;;;15.70;15.10;;;;;;;-141.02;100.00;40625.13;5112552;28;20721;-72
2023/12/03 08:15:43;;;;;;;14.60;14.10;;;;;;;-141.02;100.00;40607.84;5112554;28;20681;-72
2023/12/03 08:18:10;;;;;;;14.47;13.97;;;;;;;-141.02;100.00;40747.91;5112775;28;20283;-74
2023/12/03 08:20:37;;;;;;;14.63;14.13;;;;;;;-141.02;100.00;41089.41;5112793;28;20288;-73
2023/12/03 08:23:04;;;;;;;14.40;13.90;;;;;;;-141.02;100.00;41358.06;5112415;28;20670;-73
2023/12/03 08:25:32;;;;;;;14.70;14.20;;;;;;;-141.02;100.00;41354.22;5112238;28;20316;-76
2023/12/03 08:27:59;;;;;;;15.40;14.90;;;;;;;-141.02;100.00;41745.69;5112376;28;20228;-76
2023/12/03 08:30:26;;;;;;;14.27;13.77;;;;;;;-141.02;100.00;42231.28;5112229;28;20304;-75
2023/12/03 08:32:53;;;;;;;15.67;15.07;;;;;;;-141.02;100.00;42617.09;5112408;28;20586;-75
2023/12/03 08:35:20;;;;;;;16.27;15.67;;;;;;;-141.02;100.00;43102.78;5113089;28;20716;-77
2023/12/03 08:37:48;;;;;;;16.73;16.13;;;;;;;-141.02;100.00;43738.34;5116918;28;20203;-76
2023/12/03 08:40:15;;;;;;;17.10;16.50;;;;;;;-141.02;100.00;44717.81;5116782;28;20197;-76
2023/12/03 08:42:44;;;;;;;17.73;17.03;;;;;;;-141.02;100.00;45513.13;5116846;28;20232;-77
2023/12/03 08:45:11;;;;;;;16.33;15.73;;;;;;;-141.02;100.00;46454.69;5116696;28;20221;-77
2023/12/03 08:47:38;;;;;;;15.57;15.07;;;;;;;-141.02;100.00;47573.38;5116351;28;20698;-75
2023/12/03 08:50:06;;;;;;;14.50;14.00;;;;;;;-141.02;100.00;47811.75;5116361;28;20233;-74
2023/12/03 08:52:33;;;;;;;13.90;13.40;;;;;;;-141.02;100.00;46927.50;5116261;28;20288;-74
2023/12/03 08:55:02;;;;;;;13.20;12.80;;;;;;;-141.02;100.00;46120.31;5116585;28;20280;-75
2023/12/03 08:57:29;;;;;;;14.50;14.00;;;;;;;-141.02;100.00;45547.72;5116569;28;20197;-74
2023/12/03 08:59:57;;;;;;;15.77;15.17;;;;;;;-141.02;100.00;44568.00;5116088;28;20228;-74
2023/12/03 09:02:24;;;;;;;15.20;14.60;;;;;;;-141.02;100.00;44208.84;5116142;28;20201;-75
2023/12/03 09:04:51;;;;;;;16.00;15.40;;;;;;;-141.02;100.00;44383.59;5115982;28;20221;-74
2023/12/03 09:07:18;;;;;;;15.30;14.70;;;;;;;-141.02;100.00;44199.22;5116018;28;20204;-74
2023/12/03 09:09:45;;;;;;;17.30;16.60;;;;;;;-141.02;100.00;43711.47;5115923;28;20207;-74
2023/12/03 09:12:12;;;;;;;17.67;16.97;;;;;;;-141.02;100.00;43611.59;5115957;28;20204;-74
2023/12/03 09:14:40;;;;;;;17.20;16.50;;;;;;;-141.02;100.00;42809.06;5115840;28;20196;-73
2023/12/03 09:17:09;;;;;;;16.80;16.10;;;;;;;-141.02;100.00;42167.94;5116096;28;20193;-74
2023/12/03 09:19:36;;;;;;;18.07;17.27;;;;;;;-141.02;100.00;41651.66;5115796;28;20666;-75
2023/12/03 09:22:02;;;;;;;17.80;17.00;;;;;;;-141.02;100.00;41572.97;5115669;28;20288;-75
2023/12/03 09:24:30;;;;;;;19.13;18.33;;;;;;;-141.02;100.00;41530.75;5116058;28;20276;-74
2023/12/03 09:26:57;;;;;;;18.90;18.10;;;;;;;-141.02;100.00;41208.38;5116428;28;20311;-76
2023/12/03 09:29:24;;;;;;;20.67;19.77;;;;;;;-141.02;100.00;41204.53;5115349;28;20324;-75
2023/12/03 09:31:51;;;;;;;20.20;19.30;;;;;;;-141.02;100.00;41146.97;5115588;28;20288;-76
2023/12/03 09:34:19;;;;;;;21.80;20.80;;;;;;;-141.02;100.00;41219.91;5115717;28;20284;-76
2023/12/03 09:36:46;;;;;;;19.80;18.90;;;;;;;-141.02;100.00;41277.47;5115761;28;20578;-74
2023/12/03 09:39:13;;;;;;;19.77;18.87;;;;;;;-141.02;100.00;41277.47;5115478;28;20688;-75
2023/12/03 09:41:48;;;;;;;21.30;20.30;;;;;;;-141.02;100.00;41381.09;5115636;28;20232;-76
2023/12/03 09:44:21;;;;;;;20.30;19.40;;;;;;;-141.02;100.00;41354.22;5115637;28;20267;-75
2023/12/03 09:46:50;;;;;;;20.90;19.90;;;;;;;-141.02;100.00;41292.81;5115021;28;20220;-77
2023/12/03 09:49:23;;;;;;;21.03;20.03;;;;;;;-141.02;100.00;41488.53;5115512;28;20219;-76
2023/12/03 09:51:51;;;;;;;21.40;20.40;;;;;;;-141.02;100.00;41822.47;5115480;28;20572;-75
2023/12/03 09:54:19;;;;;;;20.20;19.30;;;;;;;-141.02;100.00;41799.44;5115410;28;20197;-76
2023/12/03 09:56:48;;;;;;;21.07;20.07;;;;;;;-141.02;100.00;41500.06;5115315;28;20649;-75
2023/12/03 09:59:16;;;;;;;23.83;22.73;;;;;;;-141.02;100.00;41315.84;5115367;28;20272;-76
2023/12/03 10:01:43;;;;;;;24.30;23.10;;;;;;;-141.02;100.00;41411.78;5115219;28;20200;-76
2023/12/03 10:04:10;;;;;;;21.77;20.77;;;;;;;-141.02;100.00;41544.19;5114880;28;20651;-75
2023/12/03 10:06:43;;;;;;;21.30;20.30;;;;;;;-141.02;100.00;41805.19;5114820;28;20771;-75
2023/12/03 10:09:13;;;;;;;21.80;20.80;;;;;;;-141.02;100.00;41960.66;5114850;28;20185;-76
2023/12/03 10:11:41;;;;;;;22.47;21.47;;;;;;;-141.02;100.00;42075.81;5114838;28;20283;-75
2023/12/03 10:14:10;;;;;;;20.80;19.90;;;;;;;-141.02;100.00;42290.78;5114667;28;20196;-76
2023/12/03 10:16:38;;;;;;;19.40;18.50;;;;;;;-141.02;100.00;42371.38;5114970;28;20284;-76
2023/12/03 10:19:05;;;;;;;20.40;19.50;;;;;;;-141.02;100.00;42632.44;5114586;28;20193;-76
2023/12/03 10:21:32;;;;;;;19.03;18.23;;;;;;;-141.02;100.00;42503.84;5114937;28;20197;-74
2023/12/03 10:24:03;;;;;;;20.97;20.03;;;;;;;-141.02;100.00;42496.16;5114840;28;20224;-75
2023/12/03 10:26:30;;;;;;;19.23;18.43;;;;;;;-141.02;100.00;42778.34;5114469;28;20725;-74
2023/12/03 10:28:57;;;;;;;18.80;18.00;;;;;;;-141.02;100.00;42440.50;5114331;28;20707;-74
2023/12/03 10:31:24;;;;;;;18.80;18.00;;;;;;;-141.02;100.00;42344.53;5114721;28;20189;-74
2023/12/03 10:33:52;;;;;;;19.87;18.97;;;;;;;-141.02;100.00;42390.59;5114420;28;20204;-74
2023/12/03 10:36:19;;;;;;;21.33;20.33;;;;;;;-141.02;100.00;42559.50;5114569;28;20274;-74
2023/12/03 10:38:46;;;;;;;20.70;19.70;;;;;;;-141.02;100.00;42709.25;5114194;28;20201;-72
2023/12/03 10:41:15;;;;;;;21.50;20.40;;;;;;;-141.02;100.00;42835.94;5114162;28;20197;-72
2023/12/03 10:43:43;;;;;;;22.23;21.03;;;;;;;-141.02;100.00;43093.19;5114441;28;20197;-72
2023/12/03 10:46:11;;;;;;;20.53;19.43;;;;;;;-141.02;100.00;42724.59;5114323;28;20311;-72
2023/12/03 10:48:39;;;;;;;21.40;20.20;;;;;;;-141.02;100.00;42548.00;5114112;28;20295;-72
2023/12/03 10:54:27;;;;;;;26.27;24.87;;;;;;;-141.02;100.00;41089.41;5114073;28;20250;-72
2023/12/03 10:56:56;;;;;;;25.80;24.40;;;;;;;-141.02;100.00;40912.91;5113920;28;20222;-72
2023/12/03 10:59:28;;;;;;;26.50;25.10;;;;;;;-141.02;100.00;41173.84;5112771;28;20280;-72
2023/12/03 11:01:58;;;;;;;27.47;25.97;;;;;;;-141.02;100.00;41242.91;5114016;28;20185;-72